Adrar, Algeria
Current Conditions -  °F | °C
As of 5:00 PM on Thursday 27 Nov 2014 (Local Time) from DAUA Reporting Station
Scattered Clouds Scattered Clouds  
Wind Chill: 75°   Ceiling: Unl
Heat Index: 75°   Visibility: 6mi
Dew Point: 50°   Wind: 14mph
Humidity: 41%   Direction: 190°S
Pressure: 29.77"   Gusts: NA
Location:  27.87°N, 0.29°W
Report Text: DAUA 271600Z 19012KT 9999 SCT046 24/10 Q1008
Loading
Personal Weather Stations






























Interactive Weather Map New forecast layout! Learn more

10-Day Weather Forecast

Advertisements
Track Severe Weather on mobile